createdAt,value
2022-11-18T00:00:30.989Z,8.53
2022-11-18T00:05:32.625Z,6.90
2022-11-18T00:10:37.122Z,7.03
2022-11-18T00:15:38.972Z,7.50
2022-11-18T00:20:40.676Z,7.70
2022-11-18T00:25:42.285Z,6.47
2022-11-18T00:30:43.971Z,7.30
2022-11-18T00:35:54.097Z,5.93
2022-11-18T00:41:14.354Z,6.83
2022-11-18T00:46:16.162Z,9.23
2022-11-18T00:51:18.752Z,6.00
2022-11-18T00:56:20.400Z,6.47
2022-11-18T01:01:22.107Z,4.90
2022-11-18T01:06:24.655Z,5.13
2022-11-18T01:11:44.797Z,8.40
2022-11-18T01:16:51.102Z,9.53
2022-11-18T01:21:52.855Z,6.37
2022-11-18T01:26:54.535Z,6.47
2022-11-18T01:32:22.660Z,10.03
2022-11-18T01:37:18.196Z,7.63
2022-11-18T01:42:19.809Z,6.53
2022-11-18T01:47:21.872Z,5.27
2022-11-18T01:52:23.727Z,6.90
2022-11-18T01:57:27.760Z,6.60
2022-11-18T02:02:32.620Z,8.73
2022-11-18T02:07:39.768Z,7.97
2022-11-18T02:12:41.437Z,5.93
2022-11-18T02:17:55.628Z,7.23
2022-11-18T02:23:24.906Z,6.27
2022-11-18T02:28:35.455Z,8.17
2022-11-18T02:33:50.503Z,6.30
2022-11-18T02:39:04.935Z,6.90
2022-11-18T02:44:16.433Z,6.90
2022-11-18T02:49:24.088Z,8.03
2022-11-18T02:54:26.842Z,7.43
2022-11-18T02:59:29.128Z,5.80
2022-11-18T03:04:31.603Z,7.13
2022-11-18T03:09:39.244Z,6.17
2022-11-18T03:15:04.814Z,10.70
2022-11-18T03:20:27.922Z,7.33
2022-11-18T03:25:46.597Z,6.10
2022-11-18T03:31:04.972Z,12.07
2022-11-18T03:36:08.927Z,6.67
2022-11-18T03:41:12.170Z,9.10
2022-11-18T03:46:17.496Z,8.13
2022-11-18T03:51:23.268Z,8.07
2022-11-18T03:56:34.908Z,7.60
2022-11-18T04:01:43.886Z,7.20
2022-11-18T04:07:01.318Z,7.17
2022-11-18T04:12:06.405Z,7.30
2022-11-18T04:17:10.505Z,9.57
2022-11-18T04:22:12.483Z,9.00
2022-11-18T04:27:14.139Z,8.63
2022-11-18T04:32:15.723Z,7.87
2022-11-18T04:37:17.342Z,8.50
2022-11-18T04:42:19.191Z,8.40
2022-11-18T04:47:20.819Z,10.03
2022-11-18T04:52:22.502Z,7.17
2022-11-18T04:57:24.225Z,9.87
2022-11-18T05:02:25.898Z,10.63
2022-11-18T05:07:27.799Z,7.77
2022-11-18T05:12:48.278Z,8.50
2022-11-18T05:17:50.288Z,8.97
2022-11-18T05:22:51.909Z,9.50
2022-11-18T05:27:53.508Z,9.50
2022-11-18T05:32:55.294Z,8.87
2022-11-18T05:37:56.916Z,12.20
2022-11-18T05:43:13.809Z,8.40
2022-11-18T05:48:15.998Z,7.30
2022-11-18T05:53:19.606Z,8.47
2022-11-18T05:58:21.306Z,9.87
2022-11-18T06:03:30.956Z,9.47
2022-11-18T06:08:37.585Z,12.83
2022-11-18T06:13:44.085Z,9.13
2022-11-18T06:18:45.934Z,11.80
2022-11-18T06:23:47.676Z,16.03
2022-11-18T06:28:49.800Z,13.00
2022-11-18T06:33:51.512Z,13.23
2022-11-18T06:38:53.088Z,51.47
2022-11-18T06:43:54.894Z,29.20
2022-11-18T06:48:56.970Z,18.37
2022-11-18T06:53:58.625Z,16.60
2022-11-18T06:59:00.884Z,17.97
2022-11-18T07:04:03.216Z,16.60
2022-11-18T07:09:07.189Z,17.33
2022-11-18T07:14:09.721Z,14.43
2022-11-18T07:19:13.078Z,17.50
2022-11-18T07:24:15.849Z,15.80
2022-11-18T07:29:17.720Z,22.63
2022-11-18T07:34:19.603Z,29.93
2022-11-18T07:39:21.317Z,25.83
2022-11-18T07:44:23.289Z,25.30
2022-11-18T07:49:25.048Z,21.53
2022-11-18T07:54:26.817Z,25.47
2022-11-18T07:59:28.597Z,23.17
2022-11-18T08:04:30.431Z,31.00
2022-11-18T08:09:32.096Z,33.23
2022-11-18T08:14:33.785Z,41.73
2022-11-18T08:19:35.710Z,34.47
2022-11-18T08:24:37.504Z,40.10
2022-11-18T08:29:39.472Z,46.10
2022-11-18T08:34:41.142Z,40.03
2022-11-18T08:39:43.106Z,33.03
2022-11-18T08:44:44.771Z,31.97
2022-11-18T08:49:46.498Z,36.80
2022-11-18T08:54:48.182Z,29.13
2022-11-18T08:59:49.886Z,31.50
2022-11-18T09:04:53.242Z,31.03
2022-11-18T09:09:54.975Z,31.00
2022-11-18T09:15:13.858Z,32.23
2022-11-18T09:20:17.399Z,38.20
2022-11-18T09:25:19.114Z,33.33
2022-11-18T09:30:20.834Z,38.47
2022-11-18T09:35:22.595Z,33.93
2022-11-18T09:40:24.496Z,30.77
2022-11-18T09:45:32.205Z,29.80
2022-11-18T09:50:49.104Z,32.60
2022-11-18T09:55:51.539Z,31.27
2022-11-18T10:00:53.357Z,31.03
2022-11-18T10:06:09.315Z,25.97
2022-11-18T10:11:17.856Z,34.03
2022-11-18T10:16:34.851Z,30.90
2022-11-18T10:22:01.517Z,26.30
2022-11-18T10:27:10.939Z,27.27
2022-11-18T10:32:18.180Z,25.03
2022-11-18T10:37:39.021Z,22.87
2022-11-18T10:42:49.649Z,24.30
2022-11-18T10:47:58.531Z,19.07
2022-11-18T10:53:00.476Z,17.77
2022-11-18T10:58:09.682Z,17.57
2022-11-18T11:03:33.304Z,17.47
2022-11-18T11:08:37.573Z,17.87
2022-11-18T11:13:42.951Z,19.83
2022-11-18T11:18:45.573Z,17.90
2022-11-18T11:23:47.367Z,19.20
2022-11-18T11:29:03.963Z,17.60
2022-11-18T11:34:39.164Z,17.83
2022-11-18T11:40:07.778Z,21.03
2022-11-18T11:45:18.686Z,15.07
2022-11-18T11:50:30.905Z,17.77
2022-11-18T11:55:35.392Z,14.50
2022-11-18T12:00:42.187Z,17.13
2022-11-18T12:05:44.370Z,16.00
2022-11-18T12:10:52.716Z,13.70
2022-11-18T12:16:13.216Z,13.63
2022-11-18T12:21:45.990Z,9.10
2022-11-18T12:26:49.575Z,11.27
2022-11-18T12:32:35.337Z,9.97
2022-11-18T12:37:45.493Z,10.30
2022-11-18T12:43:06.171Z,13.50
2022-11-18T12:48:30.860Z,9.80
2022-11-18T12:53:44.195Z,11.20
2022-11-18T12:58:53.882Z,11.40
2022-11-18T13:04:20.120Z,18.60
2022-11-18T13:09:24.971Z,22.30
2022-11-18T13:14:59.404Z,14.83
2022-11-18T13:20:01.100Z,20.37
2022-11-18T13:25:03.162Z,12.23
2022-11-18T13:30:11.148Z,12.27
2022-11-18T13:35:13.072Z,14.13
2022-11-18T13:40:32.629Z,14.07
2022-11-18T13:45:34.945Z,12.03
2022-11-18T13:50:42.969Z,13.23
2022-11-18T13:55:48.967Z,10.57
2022-11-18T14:01:01.578Z,10.30
2022-11-18T14:06:03.558Z,13.03
2022-11-18T14:11:06.839Z,13.03
2022-11-18T14:16:20.521Z,11.90
2022-11-18T14:21:35.735Z,12.47
2022-11-18T14:26:38.808Z,11.03
2022-11-18T14:31:40.709Z,12.93
2022-11-18T14:36:42.636Z,15.77
2022-11-18T14:41:47.296Z,15.40
2022-11-18T14:46:55.808Z,12.67
2022-11-18T14:51:58.674Z,12.37
2022-11-18T14:57:04.934Z,14.03
2022-11-18T15:02:14.427Z,14.03
2022-11-18T15:07:23.083Z,17.03
2022-11-18T15:12:25.276Z,14.43
2022-11-18T15:17:27.152Z,13.17
2022-11-18T15:22:28.762Z,16.03
2022-11-18T15:27:32.805Z,13.97
2022-11-18T15:32:34.531Z,12.07
2022-11-18T15:37:36.365Z,11.97
2022-11-18T15:42:45.234Z,10.40
2022-11-18T15:47:52.444Z,10.50
2022-11-18T15:52:55.275Z,12.20
2022-11-18T15:57:57.020Z,14.97
2022-11-18T16:02:58.665Z,12.27
2022-11-18T16:08:00.324Z,14.00
2022-11-18T16:13:02.000Z,11.57
2022-11-18T16:18:04.002Z,10.77
2022-11-18T16:23:05.679Z,11.67
2022-11-18T16:28:07.611Z,11.47
2022-11-18T16:33:09.703Z,15.53
2022-11-18T16:38:11.481Z,12.20
2022-11-18T16:43:13.201Z,15.23
2022-11-18T16:48:14.973Z,11.07
2022-11-18T16:53:16.604Z,11.60
2022-11-18T16:58:18.259Z,12.70
2022-11-18T17:03:20.036Z,14.30
2022-11-18T17:08:21.620Z,9.50
2022-11-18T17:13:23.232Z,11.50
2022-11-18T17:18:24.864Z,7.40
2022-11-18T17:23:28.545Z,7.50
2022-11-18T17:28:31.670Z,8.37
2022-11-18T17:33:33.908Z,9.10
2022-11-18T17:38:40.690Z,9.13
2022-11-18T17:43:42.501Z,11.77
2022-11-18T17:48:44.317Z,9.90
2022-11-18T17:53:46.125Z,7.70
2022-11-18T17:58:49.510Z,9.33
2022-11-18T18:03:52.652Z,11.90
2022-11-18T18:08:58.315Z,9.83
2022-11-18T18:14:12.437Z,11.40
2022-11-18T18:19:16.499Z,10.63
2022-11-18T18:24:20.435Z,11.63
2022-11-18T18:29:22.516Z,12.03
2022-11-18T18:34:24.190Z,13.13
2022-11-18T18:39:27.177Z,11.47
2022-11-18T18:44:48.802Z,12.30
2022-11-18T18:49:50.434Z,10.07
2022-11-18T18:54:52.129Z,13.87
2022-11-18T18:59:53.749Z,13.03
2022-11-18T19:04:55.510Z,12.37
2022-11-18T19:09:57.391Z,15.87
2022-11-18T19:14:59.089Z,19.20
2022-11-18T19:20:19.564Z,13.27
2022-11-18T19:25:21.283Z,14.40
2022-11-18T19:30:23.677Z,15.43
2022-11-18T19:35:25.889Z,17.13
2022-11-18T19:40:27.639Z,16.87
2022-11-18T19:45:29.247Z,20.03
2022-11-18T19:50:31.685Z,17.93
2022-11-18T19:55:33.371Z,17.53
2022-11-18T20:00:35.000Z,14.00
2022-11-18T20:05:51.818Z,17.70
2022-11-18T20:10:53.575Z,20.17
2022-11-18T20:16:03.011Z,19.83
2022-11-18T20:33:07.317Z,19.70
2022-11-18T20:38:51.069Z,19.63
2022-11-18T20:44:00.465Z,19.93
2022-11-18T20:49:12.338Z,21.50
2022-11-18T20:55:19.467Z,21.57
2022-11-18T21:01:30.361Z,21.03
2022-11-18T21:07:27.383Z,22.50
2022-11-18T21:12:29.250Z,22.60
2022-11-18T21:17:30.922Z,23.30
2022-11-18T21:22:32.771Z,22.60
2022-11-18T21:27:34.497Z,22.97
2022-11-18T21:32:36.130Z,22.70
2022-11-18T21:37:37.796Z,24.07
2022-11-18T21:42:40.001Z,20.37
2022-11-18T21:47:41.631Z,24.67
2022-11-18T21:52:43.266Z,26.60
2022-11-18T21:57:45.208Z,27.73
2022-11-18T22:02:50.535Z,23.30
2022-11-18T22:07:52.228Z,28.83
2022-11-18T22:12:53.886Z,23.67
2022-11-18T22:17:55.864Z,28.27
2022-11-18T22:22:57.563Z,28.37
2022-11-18T22:27:59.387Z,28.53
2022-11-18T22:33:01.188Z,27.53
2022-11-18T22:38:02.836Z,31.57
2022-11-18T22:43:04.508Z,28.03
2022-11-18T22:48:06.302Z,27.03
2022-11-18T22:53:10.214Z,27.10
2022-11-18T23:03:38.254Z,28.60
2022-11-18T23:08:41.662Z,30.30
2022-11-18T23:14:04.355Z,31.20
2022-11-18T23:19:11.239Z,26.90
2022-11-18T23:24:17.916Z,29.30
2022-11-18T23:29:20.745Z,29.80
2022-11-18T23:34:22.581Z,29.43
2022-11-18T23:39:24.179Z,28.97
2022-11-18T23:44:45.095Z,27.77
2022-11-18T23:49:46.799Z,31.40
2022-11-18T23:54:49.795Z,27.50
2022-11-18T23:59:51.429Z,31.23
